Time,TemperatureF,DewpointF,PressureIn,WindDirection,WindDirectionDegrees,WindSpeedMPH,WindSpeedGustMPH,Humidity,HourlyPrecipIn,Conditions,Clouds,dailyrainin,SoftwareType,DateUTC
2013-02-13 00:00:00,63.2,61.1,29.95,SW,217,0.0,0.0,93,0.00,,,0.00,Wunderground PWS Mod,2013-02-13 05:00:00,
2013-02-13 00:02:00,63.2,61.1,29.95,SW,217,0.0,0.0,93,0.00,,,0.00,Wunderground PWS Mod,2013-02-13 05:02:00,
2013-02-13 00:06:00,63.2,61.1,29.95,SW,217,0.0,0.0,93,0.00,,,0.00,Wunderground PWS Mod,2013-02-13 05:06:00,
2013-02-13 00:12:00,63.2,61.1,29.95,SW,217,0.0,0.0,93,0.00,,,0.00,Wunderground PWS Mod,2013-02-13 05:12:00,
2013-02-13 00:18:00,63.2,61.1,29.95,SW,217,0.0,0.0,93,0.00,,,0.00,Wunderground PWS Mod,2013-02-13 05:18:00,
2013-02-13 00:24:00,63.2,61.1,29.95,SW,217,0.0,0.0,93,0.00,,,0.00,Wunderground PWS Mod,2013-02-13 05:24:00,
2013-02-13 00:30:00,63.2,61.1,29.95,SW,217,0.0,0.0,93,0.00,,,0.00,Wunderground PWS Mod,2013-02-13 05:30:00,
2013-02-13 00:36:00,63.4,61.3,29.95,SW,217,0.0,0.0,93,0.00,,,0.00,Wunderground PWS Mod,2013-02-13 05:36:00,
2013-02-13 00:42:00,63.5,61.7,29.95,SW,217,0.0,0.0,94,0.00,,,0.00,Wunderground PWS Mod,2013-02-13 05:42:00,
2013-02-13 00:44:00,64.0,62.2,29.95,N/A,-737280,0.0,0.0,94,0.00,,,0.00,Wunderground PWS Mod,2013-02-13 05:44:00,
2013-02-13 00:48:00,63.7,61.9,29.95,SW,217,0.0,0.0,94,0.00,,,0.00,Wunderground PWS Mod,2013-02-13 05:48:00,
2013-02-13 00:54:00,63.9,62.1,29.95,SW,217,0.0,0.0,94,0.00,,,0.00,Wunderground PWS Mod,2013-02-13 05:54:00,
2013-02-13 01:00:00,63.9,62.1,29.95,SW,217,0.0,0.0,94,0.00,,,0.00,Wunderground PWS Mod,2013-02-13 06:00:00,
2013-02-13 01:06:00,64.0,62.2,29.94,SW,217,0.0,0.0,94,0.00,,,0.00,Wunderground PWS Mod,2013-02-13 06:06:00,
2013-02-13 01:12:00,64.0,62.2,29.94,SW,217,0.0,0.0,94,0.00,,,0.00,Wunderground PWS Mod,2013-02-13 06:12:00,
2013-02-13 01:18:00,64.2,62.4,29.94,SW,217,0.0,0.0,94,0.00,,,0.00,Wunderground PWS Mod,2013-02-13 06:18:00,
2013-02-13 01:22:00,64.8,63.3,29.94,N/A,-737280,0.0,0.0,95,0.00,,,0.00,Wunderground PWS Mod,2013-02-13 06:22:00,
2013-02-13 01:24:00,64.3,62.5,29.94,SW,217,0.0,0.0,94,0.00,,,0.00,Wunderground PWS Mod,2013-02-13 06:24:00,
2013-02-13 01:30:00,64.7,63.2,29.94,SW,217,0.0,0.0,95,0.00,,,0.00,Wunderground PWS Mod,2013-02-13 06:30:00,
2013-02-13 01:36:00,64.7,62.9,29.94,SW,217,0.0,0.0,94,0.00,,,0.00,Wunderground PWS Mod,2013-02-13 06:36:00,
2013-02-13 01:42:00,64.8,63.3,29.94,SW,217,0.0,0.0,95,0.00,,,0.00,Wunderground PWS Mod,2013-02-13 06:42:00,
2013-02-13 01:48:00,65.2,63.7,29.93,SW,217,0.0,0.0,95,0.00,,,0.00,Wunderground PWS Mod,2013-02-13 06:48:00,
2013-02-13 01:54:00,65.5,64.0,29.93,SW,217,0.0,0.0,95,0.00,,,0.00,Wunderground PWS Mod,2013-02-13 06:54:00,
2013-02-13 02:00:00,65.6,64.1,29.93,SW,217,0.0,0.0,95,0.00,,,0.00,Wunderground PWS Mod,2013-02-13 07:00:00,
2013-02-13 02:06:00,65.8,64.3,29.92,SW,217,0.0,0.0,95,0.00,,,0.00,Wunderground PWS Mod,2013-02-13 07:06:00,
2013-02-13 02:12:00,66.0,64.5,29.92,SW,217,0.0,0.0,95,0.00,,,0.00,Wunderground PWS Mod,2013-02-13 07:12:00,
2013-02-13 02:14:00,66.4,64.9,29.91,N/A,-737280,0.0,0.0,95,0.00,,,0.00,Wunderground PWS Mod,2013-02-13 07:14:00,
2013-02-13 02:18:00,66.3,64.8,29.91,SW,217,0.0,0.0,95,0.00,,,0.00,Wunderground PWS Mod,2013-02-13 07:18:00,
2013-02-13 02:24:00,66.4,64.9,29.91,SW,217,0.0,0.0,95,0.00,,,0.00,Wunderground PWS Mod,2013-02-13 07:24:00,
2013-02-13 02:30:00,66.4,64.9,29.91,SW,217,0.0,0.0,95,0.00,,,0.00,Wunderground PWS Mod,2013-02-13 07:30:00,
2013-02-13 02:36:00,66.4,64.9,29.91,SW,217,0.0,0.0,95,0.00,,,0.00,Wunderground PWS Mod,2013-02-13 07:36:00,
2013-02-13 02:42:00,66.4,64.9,29.91,SW,217,0.0,0.0,95,0.00,,,0.00,Wunderground PWS Mod,2013-02-13 07:42:00,
2013-02-13 02:48:00,66.4,64.9,29.92,SW,217,0.0,0.0,95,0.00,,,0.00,Wunderground PWS Mod,2013-02-13 07:48:00,
2013-02-13 02:50:00,66.4,64.9,29.91,N/A,-737280,0.0,0.0,95,0.00,,,0.00,Wunderground PWS Mod,2013-02-13 07:50:00,
2013-02-13 02:54:00,66.6,65.1,29.92,SW,217,0.0,0.0,95,0.00,,,0.00,Wunderground PWS Mod,2013-02-13 07:54:00,
2013-02-13 03:00:00,66.4,64.9,29.92,SW,217,0.0,0.0,95,0.00,,,0.00,Wunderground PWS Mod,2013-02-13 08:00:00,
2013-02-13 03:06:00,66.4,64.9,29.91,SW,217,0.0,0.0,95,0.00,,,0.00,Wunderground PWS Mod,2013-02-13 08:06:00,
2013-02-13 03:12:00,66.4,64.9,29.91,SW,217,0.0,0.0,95,0.00,,,0.00,Wunderground PWS Mod,2013-02-13 08:12:00,
2013-02-13 03:18:00,66.4,64.9,29.91,SW,217,0.0,0.0,95,0.00,,,0.00,Wunderground PWS Mod,2013-02-13 08:18:00,
2013-02-13 03:22:00,66.6,65.1,29.92,N/A,-737280,0.0,0.0,95,0.00,,,0.00,Wunderground PWS Mod,2013-02-13 08:22:00,
2013-02-13 03:24:00,66.4,64.9,29.92,SW,217,0.0,0.0,95,0.00,,,0.00,Wunderground PWS Mod,2013-02-13 08:24:00,
2013-02-13 03:30:00,66.6,65.1,29.92,SW,217,0.0,0.0,95,0.00,,,0.00,Wunderground PWS Mod,2013-02-13 08:30:00,
2013-02-13 03:36:00,66.6,65.1,29.92,SW,217,0.0,0.0,95,0.00,,,0.00,Wunderground PWS Mod,2013-02-13 08:36:00,
2013-02-13 03:42:00,66.6,65.1,29.92,SW,217,0.0,0.0,95,0.00,,,0.00,Wunderground PWS Mod,2013-02-13 08:42:00,
2013-02-13 03:48:00,66.6,65.1,29.92,SW,217,0.0,0.0,95,0.00,,,0.00,Wunderground PWS Mod,2013-02-13 08:48:00,
2013-02-13 03:50:00,66.4,64.9,29.91,N/A,-737280,0.0,0.0,95,0.00,,,0.00,Wunderground PWS Mod,2013-02-13 08:50:00,
2013-02-13 03:54:00,66.6,65.1,29.91,SW,217,0.0,0.0,95,0.00,,,0.00,Wunderground PWS Mod,2013-02-13 08:54:00,
2013-02-13 04:00:00,66.6,65.1,29.91,SW,217,0.0,0.0,95,0.00,,,0.00,Wunderground PWS Mod,2013-02-13 09:00:00,
2013-02-13 04:08:00,66.4,64.9,29.91,SW,217,0.0,0.0,95,0.00,,,0.00,Wunderground PWS Mod,2013-02-13 09:08:00,
2013-02-13 04:14:00,66.4,64.9,29.91,SW,217,0.0,0.0,95,0.00,,,0.00,Wunderground PWS Mod,2013-02-13 09:14:00,
2013-02-13 04:20:00,66.4,64.9,29.91,SW,217,0.0,0.0,95,0.00,,,0.00,Wunderground PWS Mod,2013-02-13 09:20:00,
2013-02-13 04:26:00,66.4,64.9,29.91,SW,217,0.0,0.0,95,0.00,,,0.00,Wunderground PWS Mod,2013-02-13 09:26:00,
2013-02-13 04:32:00,66.4,64.9,29.91,SW,217,0.0,0.0,95,0.00,,,0.00,Wunderground PWS Mod,2013-02-13 09:32:00,
2013-02-13 04:38:00,66.3,64.8,29.91,SW,217,0.0,0.0,95,0.00,,,0.00,Wunderground PWS Mod,2013-02-13 09:38:00,
2013-02-13 04:40:00,66.0,64.5,29.91,N/A,-737280,0.0,0.0,95,0.00,,,0.00,Wunderground PWS Mod,2013-02-13 09:40:00,
2013-02-13 04:44:00,66.3,64.8,29.91,SW,217,0.0,0.0,95,0.00,,,0.00,Wunderground PWS Mod,2013-02-13 09:44:00,
2013-02-13 04:50:00,66.1,64.6,29.91,SW,217,0.0,0.0,95,0.00,,,0.00,Wunderground PWS Mod,2013-02-13 09:50:00,
2013-02-13 04:56:00,66.0,64.5,29.91,SW,217,0.0,0.0,95,0.00,,,0.00,Wunderground PWS Mod,2013-02-13 09:56:00,
2013-02-13 05:02:00,66.0,64.5,29.91,SW,217,0.0,0.0,95,0.00,,,0.00,Wunderground PWS Mod,2013-02-13 10:02:00,
2013-02-13 05:08:00,66.0,64.5,29.91,SW,217,0.0,0.0,95,0.00,,,0.00,Wunderground PWS Mod,2013-02-13 10:08:00,
2013-02-13 05:14:00,66.0,64.5,29.91,SW,217,0.0,0.0,95,0.00,,,0.00,Wunderground PWS Mod,2013-02-13 10:14:00,
2013-02-13 05:20:00,66.0,64.5,29.91,SW,217,0.0,0.0,95,0.00,,,0.00,Wunderground PWS Mod,2013-02-13 10:20:00,
2013-02-13 05:26:00,66.3,65.1,29.91,SW,217,0.0,0.0,96,0.00,,,0.00,Wunderground PWS Mod,2013-02-13 10:26:00,
2013-02-13 05:32:00,66.4,65.2,29.91,SW,217,0.0,0.0,96,0.00,,,0.00,Wunderground PWS Mod,2013-02-13 10:32:00,
2013-02-13 05:38:00,66.4,64.9,29.91,SW,217,0.0,0.0,95,0.00,,,0.00,Wunderground PWS Mod,2013-02-13 10:38:00,
2013-02-13 05:44:00,66.4,65.2,29.91,SW,217,0.0,0.0,96,0.00,,,0.00,Wunderground PWS Mod,2013-02-13 10:44:00,
2013-02-13 05:50:00,66.6,65.4,29.91,SW,217,0.0,0.0,96,0.00,,,0.00,Wunderground PWS Mod,2013-02-13 10:50:00,
2013-02-13 05:56:00,66.6,65.4,29.91,SW,217,0.0,0.0,96,0.00,,,0.00,Wunderground PWS Mod,2013-02-13 10:56:00,
2013-02-13 06:02:00,66.8,65.6,29.91,SW,217,0.0,0.0,96,0.00,,,0.00,Wunderground PWS Mod,2013-02-13 11:02:00,
2013-02-13 06:08:00,66.9,65.7,29.91,SW,217,0.0,0.0,96,0.00,,,0.00,Wunderground PWS Mod,2013-02-13 11:08:00,
2013-02-13 06:14:00,67.1,65.9,29.91,SW,217,0.0,0.0,96,0.00,,,0.00,Wunderground PWS Mod,2013-02-13 11:14:00,
2013-02-13 06:20:00,67.3,66.1,29.91,SW,217,0.0,0.0,96,0.00,,,0.00,Wunderground PWS Mod,2013-02-13 11:20:00,
2013-02-13 06:26:00,67.6,66.4,29.91,SW,217,0.0,0.0,96,0.00,,,0.00,Wunderground PWS Mod,2013-02-13 11:26:00,
2013-02-13 06:32:00,67.9,66.7,29.91,SW,217,0.0,0.0,96,0.00,,,0.00,Wunderground PWS Mod,2013-02-13 11:32:00,
2013-02-13 06:38:00,68.3,67.1,29.91,SW,217,0.0,0.0,96,0.00,,,0.00,Wunderground PWS Mod,2013-02-13 11:38:00,
2013-02-13 06:44:00,68.8,67.6,29.91,SW,217,0.0,0.0,96,0.00,,,0.00,Wunderground PWS Mod,2013-02-13 11:44:00,
2013-02-13 06:50:00,68.9,67.7,29.91,SW,217,0.0,0.0,96,0.00,,,0.00,Wunderground PWS Mod,2013-02-13 11:50:00,
2013-02-13 06:56:00,69.1,67.9,29.91,SW,217,0.0,0.0,96,0.00,,,0.00,Wunderground PWS Mod,2013-02-13 11:56:00,
2013-02-13 07:02:00,69.3,68.1,29.91,SW,217,0.0,0.0,96,0.00,,,0.00,Wunderground PWS Mod,2013-02-13 12:02:00,
2013-02-13 07:06:00,69.6,68.4,29.92,N/A,-737280,0.0,0.0,96,0.00,,,0.00,Wunderground PWS Mod,2013-02-13 12:06:00,
2013-02-13 07:08:00,69.4,68.2,29.91,SW,217,0.0,0.0,96,0.00,,,0.00,Wunderground PWS Mod,2013-02-13 12:08:00,
2013-02-13 07:14:00,69.4,68.2,29.91,SW,217,0.0,0.0,96,0.00,,,0.00,Wunderground PWS Mod,2013-02-13 12:14:00,
2013-02-13 07:20:00,69.6,68.4,29.92,SW,217,0.0,0.0,96,0.00,,,0.00,Wunderground PWS Mod,2013-02-13 12:20:00,
2013-02-13 07:26:00,69.6,68.4,29.92,SW,217,0.0,0.0,96,0.00,,,0.00,Wunderground PWS Mod,2013-02-13 12:26:00,
2013-02-13 07:32:00,69.8,68.6,29.92,SW,217,0.0,0.0,96,0.00,,,0.00,Wunderground PWS Mod,2013-02-13 12:32:00,
2013-02-13 07:38:00,69.9,68.7,29.92,SW,217,0.0,0.0,96,0.00,,,0.00,Wunderground PWS Mod,2013-02-13 12:38:00,
2013-02-13 07:40:00,70.4,69.2,29.92,N/A,-737280,0.0,0.0,96,0.00,,,0.00,Wunderground PWS Mod,2013-02-13 12:40:00,
2013-02-13 07:44:00,70.1,68.9,29.92,SW,217,0.0,0.0,96,0.00,,,0.00,Wunderground PWS Mod,2013-02-13 12:44:00,
2013-02-13 07:50:00,70.3,69.1,29.92,SW,217,0.0,0.0,96,0.00,,,0.00,Wunderground PWS Mod,2013-02-13 12:50:00,
2013-02-13 07:56:00,70.3,69.1,29.92,SW,217,0.0,0.0,96,0.00,,,0.00,Wunderground PWS Mod,2013-02-13 12:56:00,
2013-02-13 08:02:00,70.4,69.2,29.92,SW,217,0.0,0.0,96,0.00,,,0.00,Wunderground PWS Mod,2013-02-13 13:02:00,
2013-02-13 08:04:00,71.2,70.0,29.93,N/A,-737280,0.0,0.0,96,0.00,,,0.00,Wunderground PWS Mod,2013-02-13 13:04:00,
2013-02-13 08:08:00,70.6,69.4,29.92,SW,217,0.0,0.0,96,0.00,,,0.00,Wunderground PWS Mod,2013-02-13 13:08:00,
2013-02-13 08:14:00,70.9,69.7,29.92,SW,217,0.0,0.0,96,0.00,,,0.00,Wunderground PWS Mod,2013-02-13 13:14:00,
2013-02-13 08:20:00,71.1,69.9,29.93,SW,217,0.0,0.0,96,0.00,,,0.00,Wunderground PWS Mod,2013-02-13 13:20:00,
2013-02-13 08:26:00,71.3,70.1,29.93,SW,217,0.0,0.0,96,0.00,,,0.00,Wunderground PWS Mod,2013-02-13 13:26:00,
2013-02-13 08:32:00,71.6,70.4,29.93,SW,217,0.0,0.0,96,0.00,,,0.00,Wunderground PWS Mod,2013-02-13 13:32:00,
2013-02-13 08:38:00,72.0,70.8,29.94,SW,217,0.0,1.0,96,0.00,,,0.00,Wunderground PWS Mod,2013-02-13 13:38:00,
2013-02-13 08:42:00,73.5,72.3,29.94,N/A,-737280,0.0,0.0,96,0.00,,,0.00,Wunderground PWS Mod,2013-02-13 13:42:00,
2013-02-13 08:44:00,72.3,71.1,29.94,SW,217,0.0,2.0,96,0.00,,,0.00,Wunderground PWS Mod,2013-02-13 13:44:00,
2013-02-13 08:50:00,72.7,71.5,29.94,SW,217,0.0,1.0,96,0.00,,,0.00,Wunderground PWS Mod,2013-02-13 13:50:00,
2013-02-13 08:56:00,73.0,71.8,29.94,SSW,192,0.0,2.0,96,0.00,,,0.00,Wunderground PWS Mod,2013-02-13 13:56:00,
2013-02-13 09:02:00,73.7,72.5,29.94,West,266,0.0,2.0,96,0.00,,,0.00,Wunderground PWS Mod,2013-02-13 14:02:00,
2013-02-13 09:08:00,74.2,73.0,29.94,West,266,0.0,0.0,96,0.00,,,0.00,Wunderground PWS Mod,2013-02-13 14:08:00,
2013-02-13 09:14:00,74.4,72.9,29.94,SSW,196,0.0,4.0,95,0.00,,,0.00,Wunderground PWS Mod,2013-02-13 14:14:00,
2013-02-13 09:18:00,74.7,72.9,29.95,SSW,203,1.0,4.0,94,0.00,,,0.00,Wunderground PWS Mod,2013-02-13 14:18:00,
2013-02-13 09:20:00,74.6,73.1,29.95,SSW,196,0.0,3.0,95,0.00,,,0.00,Wunderground PWS Mod,2013-02-13 14:20:00,
2013-02-13 09:26:00,74.4,72.9,29.95,SSW,196,0.0,0.0,95,0.00,,,0.00,Wunderground PWS Mod,2013-02-13 14:26:00,
2013-02-13 09:32:00,74.7,73.2,29.95,SSW,196,0.0,3.0,95,0.00,,,0.00,Wunderground PWS Mod,2013-02-13 14:32:00,
2013-02-13 09:38:00,74.9,73.1,29.95,SW,236,0.0,4.0,94,0.00,,,0.00,Wunderground PWS Mod,2013-02-13 14:38:00,
2013-02-13 09:44:00,74.9,73.1,29.95,SSW,192,0.0,1.0,94,0.00,,,0.00,Wunderground PWS Mod,2013-02-13 14:44:00,
2013-02-13 09:50:00,75.3,73.1,29.95,SSE,160,0.0,0.0,93,0.00,,,0.00,Wunderground PWS Mod,2013-02-13 14:50:00,
2013-02-13 09:54:00,76.7,73.2,29.95,SSW,203,3.0,4.0,89,0.00,,,0.00,Wunderground PWS Mod,2013-02-13 14:54:00,
2013-02-13 09:56:00,75.6,73.4,29.95,NE,34,0.0,0.0,93,0.00,,,0.00,Wunderground PWS Mod,2013-02-13 14:56:00,
2013-02-13 10:02:00,76.3,73.8,29.95,SSW,210,0.0,2.0,92,0.00,,,0.00,Wunderground PWS Mod,2013-02-13 15:02:00,
2013-02-13 10:08:00,76.3,73.1,29.95,South,189,1.0,5.0,90,0.00,,,0.00,Wunderground PWS Mod,2013-02-13 15:08:00,
2013-02-13 10:14:00,76.7,72.9,29.95,SW,229,2.0,4.0,88,0.00,,,0.00,Wunderground PWS Mod,2013-02-13 15:14:00,
2013-02-13 10:20:00,77.4,72.9,29.95,South,186,2.0,3.0,86,0.00,,,0.00,Wunderground PWS Mod,2013-02-13 15:20:00,
2013-02-13 10:26:00,77.9,72.7,29.95,SSW,200,1.0,1.0,84,0.00,,,0.00,Wunderground PWS Mod,2013-02-13 15:26:00,
2013-02-13 10:28:00,79.6,69.8,29.95,SSW,203,2.0,3.0,72,0.00,,,0.00,Wunderground PWS Mod,2013-02-13 15:28:00,
2013-02-13 10:32:00,78.3,72.0,29.95,South,172,2.0,3.0,81,0.00,,,0.00,Wunderground PWS Mod,2013-02-13 15:32:00,
2013-02-13 10:38:00,78.8,71.7,29.95,SW,218,2.0,2.0,79,0.00,,,0.00,Wunderground PWS Mod,2013-02-13 15:38:00,
2013-02-13 10:44:00,79.8,71.6,29.95,SSE,165,2.0,5.0,76,0.00,,,0.00,Wunderground PWS Mod,2013-02-13 15:44:00,
2013-02-13 10:50:00,80.1,70.3,29.95,South,173,3.0,5.0,72,0.00,,,0.00,Wunderground PWS Mod,2013-02-13 15:50:00,
2013-02-13 10:54:00,82.0,70.0,29.95,SSW,203,0.0,1.0,67,0.00,,,0.00,Wunderground PWS Mod,2013-02-13 15:54:00,
2013-02-13 10:56:00,80.9,70.2,29.95,SW,215,2.0,4.0,70,0.00,,,0.00,Wunderground PWS Mod,2013-02-13 15:56:00,
2013-02-13 11:02:00,81.4,70.7,29.95,South,175,2.0,3.0,70,0.00,,,0.00,Wunderground PWS Mod,2013-02-13 16:02:00,
2013-02-13 11:08:00,81.6,70.0,29.95,SSE,159,3.0,4.0,68,0.00,,,0.00,Wunderground PWS Mod,2013-02-13 16:08:00,
2013-02-13 11:14:00,82.0,70.4,29.95,SSW,203,2.0,2.0,68,0.00,,,0.00,Wunderground PWS Mod,2013-02-13 16:14:00,
2013-02-13 11:20:00,82.2,69.3,29.94,SSW,208,1.0,6.0,65,0.00,,,0.00,Wunderground PWS Mod,2013-02-13 16:20:00,
2013-02-13 11:26:00,82.0,69.1,29.94,SSW,200,3.0,6.0,65,0.00,,,0.00,Wunderground PWS Mod,2013-02-13 16:26:00,
2013-02-13 11:30:00,82.8,68.9,29.93,South,180,3.0,4.0,63,0.00,,,0.00,Wunderground PWS Mod,2013-02-13 16:30:00,
2013-02-13 11:32:00,82.0,69.5,29.94,ESE,123,3.0,3.0,66,0.00,,,0.00,Wunderground PWS Mod,2013-02-13 16:32:00,
2013-02-13 11:38:00,82.2,69.3,29.94,SSW,198,3.0,4.0,65,0.00,,,0.00,Wunderground PWS Mod,2013-02-13 16:38:00,
2013-02-13 11:44:00,82.2,68.3,29.94,SSW,204,3.0,12.0,63,0.00,,,0.00,Wunderground PWS Mod,2013-02-13 16:44:00,
2013-02-13 11:50:00,82.8,68.4,29.93,SW,225,3.0,6.0,62,0.00,,,0.00,Wunderground PWS Mod,2013-02-13 16:50:00,
2013-02-13 11:56:00,83.0,68.6,29.93,SW,227,3.0,5.0,62,0.00,,,0.00,Wunderground PWS Mod,2013-02-13 16:56:00,
2013-02-13 12:02:00,83.2,69.8,29.93,South,189,3.0,5.0,64,0.00,,,0.00,Wunderground PWS Mod,2013-02-13 17:02:00,
2013-02-13 12:04:00,82.4,70.3,29.92,South,180,3.0,4.0,67,0.00,,,0.00,Wunderground PWS Mod,2013-02-13 17:04:00,
2013-02-13 12:08:00,83.6,69.7,29.92,SSE,159,2.0,4.0,63,0.00,,,0.00,Wunderground PWS Mod,2013-02-13 17:08:00,
2013-02-13 12:14:00,83.4,69.0,29.92,SW,230,3.0,6.0,62,0.00,,,0.00,Wunderground PWS Mod,2013-02-13 17:14:00,
2013-02-13 12:20:00,82.8,70.3,29.92,SSW,209,3.0,5.0,66,0.00,,,0.00,Wunderground PWS Mod,2013-02-13 17:20:00,
2013-02-13 12:26:00,82.2,70.1,29.92,SW,232,3.0,3.0,67,0.00,,,0.00,Wunderground PWS Mod,2013-02-13 17:26:00,
2013-02-13 12:32:00,82.2,69.7,29.92,South,185,2.0,5.0,66,0.00,,,0.00,Wunderground PWS Mod,2013-02-13 17:32:00,
2013-02-13 12:38:00,82.4,70.3,29.92,South,184,2.0,3.0,67,0.00,,,0.00,Wunderground PWS Mod,2013-02-13 17:38:00,
2013-02-13 12:44:00,82.0,69.5,29.92,South,178,2.0,9.0,66,0.00,,,0.00,Wunderground PWS Mod,2013-02-13 17:44:00,
2013-02-13 12:50:00,82.6,69.6,29.91,SW,224,3.0,7.0,65,0.00,,,0.00,Wunderground PWS Mod,2013-02-13 17:50:00,
2013-02-13 12:56:00,82.6,69.6,29.91,SW,232,3.0,6.0,65,0.00,,,0.00,Wunderground PWS Mod,2013-02-13 17:56:00,
2013-02-13 13:02:00,82.4,69.4,29.91,SSW,196,3.0,4.0,65,0.00,,,0.00,Wunderground PWS Mod,2013-02-13 18:02:00,
2013-02-13 13:06:00,82.4,69.4,29.89,WSW,248,3.0,5.0,65,0.00,,,0.00,Wunderground PWS Mod,2013-02-13 18:06:00,
2013-02-13 13:08:00,82.6,69.6,29.91,SW,234,3.0,4.0,65,0.00,,,0.00,Wunderground PWS Mod,2013-02-13 18:08:00,
2013-02-13 13:14:00,82.8,69.8,29.91,South,179,2.0,3.0,65,0.00,,,0.00,Wunderground PWS Mod,2013-02-13 18:14:00,
2013-02-13 13:20:00,82.6,69.2,29.89,SW,217,2.0,3.0,64,0.00,,,0.00,Wunderground PWS Mod,2013-02-13 18:20:00,
2013-02-13 13:26:00,82.6,69.6,29.89,South,173,2.0,5.0,65,0.00,,,0.00,Wunderground PWS Mod,2013-02-13 18:26:00,
2013-02-13 13:32:00,82.0,69.1,29.89,South,180,3.0,5.0,65,0.00,,,0.00,Wunderground PWS Mod,2013-02-13 18:32:00,
2013-02-13 13:38:00,82.0,69.1,29.89,SSE,162,2.0,5.0,65,0.00,,,0.00,Wunderground PWS Mod,2013-02-13 18:38:00,
2013-02-13 13:44:00,82.4,69.4,29.89,South,181,2.0,5.0,65,0.00,,,0.00,Wunderground PWS Mod,2013-02-13 18:44:00,
2013-02-13 13:50:00,82.6,69.2,29.88,SSE,155,3.0,7.0,64,0.00,,,0.00,Wunderground PWS Mod,2013-02-13 18:50:00,
2013-02-13 13:56:00,82.8,68.4,29.88,SSW,209,3.0,6.0,62,0.00,,,0.00,Wunderground PWS Mod,2013-02-13 18:56:00,
2013-02-13 14:02:00,83.0,68.6,29.88,SW,228,3.0,6.0,62,0.00,,,0.00,Wunderground PWS Mod,2013-02-13 19:02:00,
2013-02-13 14:06:00,83.4,68.1,29.88,SSW,203,3.0,5.0,60,0.00,,,0.00,Wunderground PWS Mod,2013-02-13 19:06:00,
2013-02-13 14:08:00,83.4,69.0,29.88,WSW,243,3.0,4.0,62,0.00,,,0.00,Wunderground PWS Mod,2013-02-13 19:08:00,
2013-02-13 14:14:00,83.6,68.2,29.88,South,181,2.0,7.0,60,0.00,,,0.00,Wunderground PWS Mod,2013-02-13 19:14:00,
2013-02-13 14:20:00,83.4,68.5,29.88,South,177,2.0,4.0,61,0.00,,,0.00,Wunderground PWS Mod,2013-02-13 19:20:00,
2013-02-13 14:26:00,83.4,68.5,29.88,South,181,2.0,5.0,61,0.00,,,0.00,Wunderground PWS Mod,2013-02-13 19:26:00,
2013-02-13 14:28:00,83.0,69.1,29.87,South,180,3.0,5.0,63,0.00,,,0.00,Wunderground PWS Mod,2013-02-13 19:28:00,
2013-02-13 14:32:00,83.2,67.9,29.88,SW,230,2.0,4.0,60,0.00,,,0.00,Wunderground PWS Mod,2013-02-13 19:32:00,
2013-02-13 14:38:00,83.2,68.3,29.87,SW,216,2.0,4.0,61,0.00,,,0.00,Wunderground PWS Mod,2013-02-13 19:38:00,
2013-02-13 14:44:00,83.2,68.3,29.87,SSE,161,2.0,6.0,61,0.00,,,0.00,Wunderground PWS Mod,2013-02-13 19:44:00,
2013-02-13 14:50:00,82.8,68.4,29.87,SSW,205,3.0,5.0,62,0.00,,,0.00,Wunderground PWS Mod,2013-02-13 19:50:00,
2013-02-13 14:56:00,82.6,69.2,29.87,South,191,3.0,9.0,64,0.00,,,0.00,Wunderground PWS Mod,2013-02-13 19:56:00,
2013-02-13 15:02:00,82.4,68.5,29.87,South,184,3.0,4.0,63,0.00,,,0.00,Wunderground PWS Mod,2013-02-13 20:02:00,
2013-02-13 15:08:00,82.6,69.2,29.87,SW,223,2.0,4.0,64,0.00,,,0.00,Wunderground PWS Mod,2013-02-13 20:08:00,
2013-02-13 15:14:00,83.2,69.8,29.87,SSE,158,1.0,4.0,64,0.00,,,0.00,Wunderground PWS Mod,2013-02-13 20:14:00,
2013-02-13 15:20:00,83.2,69.3,29.87,West,267,1.0,4.0,63,0.00,,,0.00,Wunderground PWS Mod,2013-02-13 20:20:00,
2013-02-13 15:26:00,83.2,69.8,29.87,SSW,202,2.0,5.0,64,0.00,,,0.00,Wunderground PWS Mod,2013-02-13 20:26:00,
2013-02-13 15:32:00,82.6,69.2,29.87,SSW,198,2.0,3.0,64,0.00,,,0.00,Wunderground PWS Mod,2013-02-13 20:32:00,
2013-02-13 15:38:00,81.8,68.9,29.86,South,180,2.0,9.0,65,0.00,,,0.00,Wunderground PWS Mod,2013-02-13 20:38:00,
2013-02-13 15:44:00,81.2,68.8,29.86,SW,224,2.0,4.0,66,0.00,,,0.00,Wunderground PWS Mod,2013-02-13 20:44:00,
2013-02-13 15:46:00,80.9,69.3,29.87,South,180,1.0,2.0,68,0.00,,,0.00,Wunderground PWS Mod,2013-02-13 20:46:00,
2013-02-13 15:50:00,80.9,68.9,29.87,SSW,192,2.0,4.0,67,0.00,,,0.00,Wunderground PWS Mod,2013-02-13 20:50:00,
2013-02-13 15:56:00,80.9,68.9,29.87,South,182,2.0,6.0,67,0.00,,,0.00,Wunderground PWS Mod,2013-02-13 20:56:00,
2013-02-13 16:02:00,80.9,69.3,29.87,SW,223,2.0,5.0,68,0.00,,,0.00,Wunderground PWS Mod,2013-02-13 21:02:00,
2013-02-13 16:08:00,80.9,69.3,29.87,SW,214,2.0,3.0,68,0.00,,,0.00,Wunderground PWS Mod,2013-02-13 21:08:00,
2013-02-13 16:14:00,80.3,69.2,29.87,SW,229,2.0,5.0,69,0.00,,,0.00,Wunderground PWS Mod,2013-02-13 21:14:00,
2013-02-13 16:18:00,80.3,69.2,29.88,SE,135,2.0,4.0,69,0.00,,,0.00,Wunderground PWS Mod,2013-02-13 21:18:00,
2013-02-13 16:20:00,79.6,69.4,29.87,SSW,196,2.0,6.0,71,0.00,,,0.00,Wunderground PWS Mod,2013-02-13 21:20:00,
2013-02-13 16:26:00,79.6,69.4,29.87,WSW,244,2.0,4.0,71,0.00,,,0.00,Wunderground PWS Mod,2013-02-13 21:26:00,
2013-02-13 16:32:00,80.1,69.8,29.87,SSE,167,2.0,3.0,71,0.00,,,0.00,Wunderground PWS Mod,2013-02-13 21:32:00,
2013-02-13 16:38:00,80.3,69.6,29.88,South,175,2.0,4.0,70,0.00,,,0.00,Wunderground PWS Mod,2013-02-13 21:38:00,
2013-02-13 16:44:00,80.5,69.8,29.88,South,179,1.0,3.0,70,0.00,,,0.00,Wunderground PWS Mod,2013-02-13 21:44:00,
2013-02-13 16:46:00,79.0,69.6,29.87,SW,225,2.0,3.0,73,0.00,,,0.00,Wunderground PWS Mod,2013-02-13 21:46:00,
2013-02-13 16:50:00,79.9,69.7,29.88,South,173,2.0,3.0,71,0.00,,,0.00,Wunderground PWS Mod,2013-02-13 21:50:00,
2013-02-13 16:56:00,79.6,69.8,29.88,South,178,2.0,6.0,72,0.00,,,0.00,Wunderground PWS Mod,2013-02-13 21:56:00,
2013-02-13 17:02:00,79.2,69.8,29.88,South,175,2.0,4.0,73,0.00,,,0.00,Wunderground PWS Mod,2013-02-13 22:02:00,
2013-02-13 17:08:00,78.8,69.4,29.87,SSW,199,2.0,3.0,73,0.00,,,0.00,Wunderground PWS Mod,2013-02-13 22:08:00,
2013-02-13 17:14:00,78.6,69.6,29.87,SW,222,2.0,3.0,74,0.00,,,0.00,Wunderground PWS Mod,2013-02-13 22:14:00,
2013-02-13 17:20:00,78.6,70.0,29.88,South,188,1.0,2.0,75,0.00,,,0.00,Wunderground PWS Mod,2013-02-13 22:20:00,
2013-02-13 17:26:00,78.5,69.9,29.88,SSW,199,1.0,2.0,75,0.00,,,0.00,Wunderground PWS Mod,2013-02-13 22:26:00,
2013-02-13 17:32:00,78.3,70.1,29.88,South,178,1.0,2.0,76,0.00,,,0.00,Wunderground PWS Mod,2013-02-13 22:32:00,
2013-02-13 17:38:00,77.9,70.1,29.88,SSE,167,1.0,1.0,77,0.00,,,0.00,Wunderground PWS Mod,2013-02-13 22:38:00,
2013-02-13 17:44:00,77.6,70.2,29.88,South,173,1.0,3.0,78,0.00,,,0.00,Wunderground PWS Mod,2013-02-13 22:44:00,
2013-02-13 17:50:00,77.4,70.4,29.88,SSE,167,1.0,1.0,79,0.00,,,0.00,Wunderground PWS Mod,2013-02-13 22:50:00,
2013-02-13 17:56:00,77.0,70.4,29.88,South,176,1.0,3.0,80,0.00,,,0.00,Wunderground PWS Mod,2013-02-13 22:56:00,
2013-02-13 17:58:00,76.0,70.1,29.88,SSW,203,0.0,1.0,82,0.00,,,0.00,Wunderground PWS Mod,2013-02-13 22:58:00,
2013-02-13 18:02:00,76.7,70.1,29.88,SSE,153,1.0,2.0,80,0.00,,,0.00,Wunderground PWS Mod,2013-02-13 23:02:00,
2013-02-13 18:08:00,76.5,70.2,29.88,SSE,160,0.0,2.0,81,0.00,,,0.00,Wunderground PWS Mod,2013-02-13 23:08:00,
2013-02-13 18:14:00,76.1,70.2,29.88,SW,221,1.0,3.0,82,0.00,,,0.00,Wunderground PWS Mod,2013-02-13 23:14:00,
2013-02-13 18:20:00,76.0,70.1,29.88,SSW,198,1.0,1.0,82,0.00,,,0.00,Wunderground PWS Mod,2013-02-13 23:20:00,
2013-02-13 18:26:00,75.6,70.1,29.88,SSE,166,0.0,3.0,83,0.00,,,0.00,Wunderground PWS Mod,2013-02-13 23:26:00,
2013-02-13 18:32:00,75.4,69.9,29.88,SSE,166,0.0,0.0,83,0.00,,,0.00,Wunderground PWS Mod,2013-02-13 23:32:00,
2013-02-13 18:38:00,75.3,70.1,29.87,SSE,166,0.0,0.0,84,0.00,,,0.00,Wunderground PWS Mod,2013-02-13 23:38:00,
2013-02-13 18:44:00,75.1,69.9,29.87,SSE,166,0.0,1.0,84,0.00,,,0.00,Wunderground PWS Mod,2013-02-13 23:44:00,
2013-02-13 18:50:00,74.9,70.1,29.88,SSW,209,0.0,0.0,85,0.00,,,0.00,Wunderground PWS Mod,2013-02-13 23:50:00,
2013-02-13 18:56:00,74.7,69.9,29.88,SSW,209,0.0,0.0,85,0.00,,,0.00,Wunderground PWS Mod,2013-02-13 23:56:00,
2013-02-13 19:02:00,74.4,69.6,29.88,SSW,209,0.0,0.0,85,0.00,,,0.00,Wunderground PWS Mod,2013-02-14 00:02:00,
2013-02-13 19:06:00,73.7,69.6,29.87,N/A,-737280,0.0,0.0,87,0.00,,,0.00,Wunderground PWS Mod,2013-02-14 00:06:00,
2013-02-13 19:08:00,74.2,69.7,29.87,SSW,209,0.0,0.0,86,0.00,,,0.00,Wunderground PWS Mod,2013-02-14 00:08:00,
2013-02-13 19:14:00,74.0,69.5,29.87,SSW,209,0.0,0.0,86,0.00,,,0.00,Wunderground PWS Mod,2013-02-14 00:14:00,
2013-02-13 19:20:00,73.9,69.8,29.87,SSW,209,0.0,0.0,87,0.00,,,0.00,Wunderground PWS Mod,2013-02-14 00:20:00,
2013-02-13 19:26:00,73.7,69.6,29.87,SSW,209,0.0,0.0,87,0.00,,,0.00,Wunderground PWS Mod,2013-02-14 00:26:00,
2013-02-13 19:32:00,73.5,69.4,29.87,SSW,209,0.0,0.0,87,0.00,,,0.00,Wunderground PWS Mod,2013-02-14 00:32:00,
2013-02-13 19:38:00,73.3,69.2,29.88,SSW,209,0.0,0.0,87,0.00,,,0.00,Wunderground PWS Mod,2013-02-14 00:38:00,
2013-02-13 19:44:00,73.2,69.4,29.88,SSW,209,0.0,0.0,88,0.00,,,0.00,Wunderground PWS Mod,2013-02-14 00:44:00,
2013-02-13 19:50:00,72.8,69.0,29.88,SSW,209,0.0,0.0,88,0.00,,,0.00,Wunderground PWS Mod,2013-02-14 00:50:00,
2013-02-13 19:56:00,72.5,68.7,29.88,SSW,209,0.0,0.0,88,0.00,,,0.00,Wunderground PWS Mod,2013-02-14 00:56:00,
2013-02-13 20:02:00,72.3,68.9,29.88,SSW,209,0.0,0.0,89,0.00,,,0.00,Wunderground PWS Mod,2013-02-14 01:02:00,
2013-02-13 20:08:00,72.3,68.9,29.89,SSW,209,0.0,0.0,89,0.00,,,0.00,Wunderground PWS Mod,2013-02-14 01:08:00,
2013-02-13 20:14:00,72.1,68.7,29.89,SSW,209,0.0,0.0,89,0.00,,,0.00,Wunderground PWS Mod,2013-02-14 01:14:00,
2013-02-13 20:20:00,72.0,68.6,29.89,SSW,209,0.0,0.0,89,0.00,,,0.00,Wunderground PWS Mod,2013-02-14 01:20:00,
2013-02-13 20:26:00,71.8,68.7,29.89,SSW,209,0.0,0.0,90,0.00,,,0.00,Wunderground PWS Mod,2013-02-14 01:26:00,
2013-02-13 20:32:00,71.6,68.5,29.89,SSW,209,0.0,0.0,90,0.00,,,0.00,Wunderground PWS Mod,2013-02-14 01:32:00,
2013-02-13 20:38:00,71.1,68.0,29.89,SSW,209,0.0,0.0,90,0.00,,,0.00,Wunderground PWS Mod,2013-02-14 01:38:00,
2013-02-13 20:44:00,70.6,67.5,29.89,SSW,209,0.0,0.0,90,0.00,,,0.00,Wunderground PWS Mod,2013-02-14 01:44:00,
2013-02-13 20:50:00,70.6,67.5,29.90,SSW,209,0.0,0.0,90,0.00,,,0.00,Wunderground PWS Mod,2013-02-14 01:50:00,
2013-02-13 20:56:00,70.6,67.8,29.90,SSW,209,0.0,0.0,91,0.00,,,0.00,Wunderground PWS Mod,2013-02-14 01:56:00,
2013-02-13 21:02:00,70.4,67.6,29.90,SSW,209,0.0,0.0,91,0.00,,,0.00,Wunderground PWS Mod,2013-02-14 02:02:00,
2013-02-13 21:08:00,70.3,67.5,29.90,SSW,209,0.0,0.0,91,0.00,,,0.00,Wunderground PWS Mod,2013-02-14 02:08:00,
2013-02-13 21:10:00,69.9,67.2,29.91,N/A,-737280,0.0,0.0,91,0.00,,,0.00,Wunderground PWS Mod,2013-02-14 02:10:00,
2013-02-13 21:14:00,70.1,67.3,29.90,SSW,209,0.0,0.0,91,0.00,,,0.00,Wunderground PWS Mod,2013-02-14 02:14:00,
2013-02-13 21:20:00,70.1,67.3,29.91,SSW,209,0.0,0.0,91,0.00,,,0.00,Wunderground PWS Mod,2013-02-14 02:20:00,
2013-02-13 21:26:00,69.9,67.2,29.91,SSW,209,0.0,0.0,91,0.00,,,0.00,Wunderground PWS Mod,2013-02-14 02:26:00,
2013-02-13 21:32:00,69.9,67.5,29.91,SSW,209,0.0,0.0,92,0.00,,,0.00,Wunderground PWS Mod,2013-02-14 02:32:00,
2013-02-13 21:38:00,69.9,67.5,29.91,SSW,209,0.0,0.0,92,0.00,,,0.00,Wunderground PWS Mod,2013-02-14 02:38:00,
2013-02-13 21:44:00,69.6,67.2,29.91,SSW,209,0.0,0.0,92,0.00,,,0.00,Wunderground PWS Mod,2013-02-14 02:44:00,
2013-02-13 21:50:00,69.3,66.9,29.91,SSW,209,0.0,0.0,92,0.00,,,0.00,Wunderground PWS Mod,2013-02-14 02:50:00,
2013-02-13 21:56:00,69.1,66.7,29.91,SSW,209,0.0,0.0,92,0.00,,,0.00,Wunderground PWS Mod,2013-02-14 02:56:00,
2013-02-13 22:02:00,68.9,66.5,29.91,SSW,209,0.0,0.0,92,0.00,,,0.00,Wunderground PWS Mod,2013-02-14 03:02:00,
2013-02-13 22:08:00,68.9,66.5,29.91,SSW,209,0.0,0.0,92,0.00,,,0.00,Wunderground PWS Mod,2013-02-14 03:08:00,
2013-02-13 22:14:00,68.9,66.5,29.91,SSW,209,0.0,0.0,92,0.00,,,0.00,Wunderground PWS Mod,2013-02-14 03:14:00,
2013-02-13 22:16:00,69.4,67.3,29.91,N/A,-737280,0.0,0.0,93,0.00,,,0.00,Wunderground PWS Mod,2013-02-14 03:16:00,
2013-02-13 22:20:00,69.1,67.0,29.91,SSW,209,0.0,0.0,93,0.00,,,0.00,Wunderground PWS Mod,2013-02-14 03:20:00,
2013-02-13 22:26:00,69.3,67.2,29.91,SSW,209,0.0,0.0,93,0.00,,,0.00,Wunderground PWS Mod,2013-02-14 03:26:00,
2013-02-13 22:32:00,69.4,67.3,29.91,SSW,209,0.0,0.0,93,0.00,,,0.00,Wunderground PWS Mod,2013-02-14 03:32:00,
2013-02-13 22:38:00,69.4,67.3,29.91,SSW,209,0.0,0.0,93,0.00,,,0.00,Wunderground PWS Mod,2013-02-14 03:38:00,
2013-02-13 22:44:00,69.4,67.3,29.91,SSW,209,0.0,0.0,93,0.00,,,0.00,Wunderground PWS Mod,2013-02-14 03:44:00,
2013-02-13 22:50:00,69.4,67.3,29.91,SSW,209,0.0,0.0,93,0.00,,,0.00,Wunderground PWS Mod,2013-02-14 03:50:00,
2013-02-13 22:56:00,69.4,67.3,29.91,SSW,209,0.0,0.0,93,0.00,,,0.00,Wunderground PWS Mod,2013-02-14 03:56:00,
2013-02-13 23:02:00,69.4,67.3,29.91,SSW,209,0.0,0.0,93,0.00,,,0.00,Wunderground PWS Mod,2013-02-14 04:02:00,
2013-02-13 23:08:00,69.3,67.2,29.90,SSW,209,0.0,0.0,93,0.00,,,0.00,Wunderground PWS Mod,2013-02-14 04:08:00,
2013-02-13 23:14:00,69.1,67.0,29.90,SSW,209,0.0,0.0,93,0.00,,,0.00,Wunderground PWS Mod,2013-02-14 04:14:00,
2013-02-13 23:20:00,69.1,67.0,29.91,SSW,209,0.0,0.0,93,0.00,,,0.00,Wunderground PWS Mod,2013-02-14 04:20:00,
2013-02-13 23:26:00,68.8,66.7,29.91,SSW,209,0.0,0.0,93,0.00,,,0.00,Wunderground PWS Mod,2013-02-14 04:26:00,
2013-02-13 23:32:00,68.8,67.0,29.91,SSW,209,0.0,0.0,94,0.00,,,0.00,Wunderground PWS Mod,2013-02-14 04:32:00,
2013-02-13 23:38:00,68.6,66.8,29.91,SSW,209,0.0,0.0,94,0.00,,,0.00,Wunderground PWS Mod,2013-02-14 04:38:00,
2013-02-13 23:44:00,68.8,67.0,29.91,SSW,209,0.0,0.0,94,0.00,,,0.00,Wunderground PWS Mod,2013-02-14 04:44:00,
2013-02-13 23:50:00,68.9,67.1,29.91,SSW,209,0.0,0.0,94,0.00,,,0.00,Wunderground PWS Mod,2013-02-14 04:50:00,
2013-02-13 23:56:00,69.1,67.3,29.91,SSW,209,0.0,0.0,94,0.00,,,0.00,Wunderground PWS Mod,2013-02-14 04:56:00,